createdAt,value
2023-03-07T00:01:36.501Z,14.60
2023-03-07T00:04:05.175Z,15.20
2023-03-07T00:06:44.633Z,14.70
2023-03-07T00:09:13.010Z,13.80
2023-03-07T00:11:41.599Z,14.20
2023-03-07T00:14:10.289Z,13.90
2023-03-07T00:16:38.783Z,13.70
2023-03-07T00:19:08.450Z,13.00
2023-03-07T00:21:38.204Z,12.80
2023-03-07T00:24:07.185Z,13.10
2023-03-07T00:26:39.893Z,12.90
2023-03-07T00:29:13.196Z,12.90
2023-03-07T00:32:01.479Z,14.00
2023-03-07T00:34:30.914Z,13.80
2023-03-07T00:37:00.525Z,13.60
2023-03-07T00:39:28.906Z,14.50
2023-03-07T00:41:57.408Z,14.00
2023-03-07T00:44:27.419Z,13.70
2023-03-07T00:46:56.716Z,13.40
2023-03-07T00:49:25.917Z,13.10
2023-03-07T00:51:55.012Z,13.80
2023-03-07T00:54:23.596Z,13.20
2023-03-07T00:56:53.922Z,13.20
2023-03-07T00:59:22.410Z,13.30
2023-03-07T01:01:50.997Z,14.00
2023-03-07T01:04:22.384Z,13.00
2023-03-07T01:06:52.058Z,13.70
2023-03-07T01:09:22.178Z,14.40
2023-03-07T01:11:51.797Z,13.00
2023-03-07T01:14:25.568Z,13.30
2023-03-07T01:17:09.400Z,13.40
2023-03-07T01:20:05.099Z,13.10
2023-03-07T01:22:46.253Z,13.00
2023-03-07T01:25:27.481Z,13.10
2023-03-07T01:28:11.964Z,13.90
2023-03-07T01:30:59.260Z,13.00
2023-03-07T01:33:30.536Z,12.90
2023-03-07T01:36:04.511Z,12.60
2023-03-07T01:38:38.043Z,12.80
2023-03-07T01:41:10.439Z,13.90
2023-03-07T01:44:09.164Z,12.20
2023-03-07T01:47:11.301Z,13.30
2023-03-07T01:49:58.244Z,12.40
2023-03-07T01:53:00.066Z,13.20
2023-03-07T01:55:42.339Z,14.30
2023-03-07T01:58:29.946Z,13.40
2023-03-07T02:01:11.097Z,13.50
2023-03-07T02:04:19.578Z,13.20
2023-03-07T02:06:51.905Z,13.90
2023-03-07T02:09:28.404Z,13.60
2023-03-07T02:12:23.265Z,12.30
2023-03-07T02:14:54.215Z,13.60
2023-03-07T02:17:32.620Z,15.10
2023-03-07T02:20:41.021Z,14.30
2023-03-07T02:23:52.031Z,13.40
2023-03-07T02:26:54.836Z,14.00
2023-03-07T02:29:36.725Z,13.50
2023-03-07T02:32:16.652Z,14.30
2023-03-07T02:35:03.315Z,15.10
2023-03-07T02:38:00.461Z,14.70
2023-03-07T03:10:55.689Z,15.00
2023-03-07T03:13:30.826Z,15.80
2023-03-07T03:16:00.068Z,14.80
2023-03-07T03:18:28.828Z,15.20
2023-03-07T03:20:57.556Z,15.30
2023-03-07T03:23:29.168Z,14.70
2023-03-07T03:26:05.334Z,14.70
2023-03-07T03:28:35.451Z,13.80
2023-03-07T03:31:06.418Z,14.20
2023-03-07T03:33:36.410Z,14.40
2023-03-07T03:36:09.896Z,15.00
2023-03-07T03:38:39.493Z,15.20
2023-03-07T03:41:12.004Z,14.30
2023-03-07T03:43:40.993Z,14.20
2023-03-07T03:46:09.386Z,14.80
2023-03-07T03:48:38.879Z,14.80
2023-03-07T03:53:40.354Z,14.40
2023-03-07T03:56:13.784Z,13.90
2023-03-07T03:58:43.162Z,13.50
2023-03-07T04:01:12.670Z,14.00
2023-03-07T04:03:46.386Z,15.40
2023-03-07T04:06:16.906Z,14.70
2023-03-07T04:08:51.850Z,13.90
2023-03-07T04:11:21.443Z,14.00
2023-03-07T04:13:50.956Z,16.00
2023-03-07T04:16:22.974Z,14.70
2023-03-07T04:18:52.738Z,13.80
2023-03-07T04:21:21.937Z,14.00
2023-03-07T04:23:58.808Z,14.60
2023-03-07T04:26:30.981Z,15.30
2023-03-07T04:28:59.261Z,14.10
2023-03-07T04:31:32.719Z,14.10
2023-03-07T04:34:03.817Z,13.20
2023-03-07T04:36:32.496Z,13.40
2023-03-07T04:39:01.588Z,12.90
2023-03-07T04:41:32.822Z,12.80
2023-03-07T04:44:08.603Z,11.90
2023-03-07T04:46:37.100Z,13.40
2023-03-07T04:49:05.873Z,13.00
2023-03-07T04:51:34.303Z,13.50
2023-03-07T04:54:02.746Z,11.60
2023-03-07T04:56:31.352Z,12.80
2023-03-07T04:59:00.627Z,12.80
2023-03-07T05:01:29.561Z,11.70
2023-03-07T05:03:59.004Z,11.60
2023-03-07T05:06:27.812Z,12.40
2023-03-07T05:08:56.499Z,12.60
2023-03-07T05:11:26.526Z,11.40
2023-03-07T05:13:57.686Z,11.30
2023-03-07T05:16:26.366Z,11.20
2023-03-07T05:18:54.835Z,10.40
2023-03-07T05:21:23.533Z,10.30
2023-03-07T05:23:53.544Z,9.90
2023-03-07T05:26:22.234Z,9.60
2023-03-07T05:28:50.820Z,9.30
2023-03-07T05:31:20.276Z,9.50
2023-03-07T05:33:49.425Z,9.80
2023-03-07T05:36:20.067Z,9.70
2023-03-07T05:38:48.546Z,10.00
2023-03-07T05:41:18.234Z,8.80
2023-03-07T05:43:47.254Z,10.20
2023-03-07T05:46:16.037Z,9.60
2023-03-07T05:48:44.549Z,9.30
2023-03-07T05:51:12.907Z,9.20
2023-03-07T05:53:41.794Z,9.10
2023-03-07T05:56:15.809Z,9.30
2023-03-07T05:58:44.600Z,9.00
2023-03-07T06:01:13.497Z,9.00
2023-03-07T06:03:44.387Z,9.80
2023-03-07T06:06:12.925Z,10.20
2023-03-07T06:08:57.296Z,10.20
2023-03-07T06:11:26.582Z,9.80
2023-03-07T06:13:58.813Z,9.70
2023-03-07T06:16:28.287Z,9.10
2023-03-07T06:18:56.944Z,9.40
2023-03-07T06:21:30.854Z,9.20
2023-03-07T06:23:59.442Z,8.80
2023-03-07T06:26:28.126Z,9.20
2023-03-07T06:28:57.227Z,9.60
2023-03-07T06:31:27.077Z,9.30
2023-03-07T06:33:57.497Z,9.50
2023-03-07T06:36:26.573Z,9.60
2023-03-07T06:39:00.608Z,9.50
2023-03-07T06:41:31.420Z,9.30
2023-03-07T06:44:01.236Z,8.60
2023-03-07T06:46:32.687Z,9.60
2023-03-07T06:49:05.368Z,9.40
2023-03-07T06:51:36.787Z,9.20
2023-03-07T06:54:10.542Z,10.30
2023-03-07T06:56:43.585Z,8.90
2023-03-07T06:59:14.470Z,9.80
2023-03-07T07:01:42.843Z,9.40
2023-03-07T07:04:11.816Z,8.90
2023-03-07T07:06:45.539Z,9.30
2023-03-07T07:09:16.896Z,9.40
2023-03-07T07:11:47.323Z,10.60
2023-03-07T07:14:17.248Z,9.50
2023-03-07T07:16:46.520Z,9.60
2023-03-07T07:19:15.392Z,8.40
2023-03-07T07:21:45.591Z,10.00
2023-03-07T07:24:14.458Z,10.50
2023-03-07T07:26:42.883Z,10.70
2023-03-07T07:29:11.857Z,8.90
2023-03-07T07:31:41.127Z,10.50
2023-03-07T07:34:09.969Z,10.20
2023-03-07T07:36:38.667Z,10.60
2023-03-07T07:39:07.443Z,10.70
2023-03-07T07:41:38.254Z,10.10
2023-03-07T07:44:06.934Z,10.50
2023-03-07T07:46:47.386Z,10.60
2023-03-07T07:49:17.720Z,10.90
2023-03-07T07:51:49.171Z,10.10
2023-03-07T07:54:17.561Z,9.50
2023-03-07T07:56:47.064Z,9.10
2023-03-07T07:59:17.478Z,9.80
2023-03-07T08:01:46.283Z,9.90
2023-03-07T08:04:14.567Z,10.30
2023-03-07T08:06:44.595Z,10.40
2023-03-07T08:09:14.815Z,10.80
2023-03-07T08:11:45.541Z,9.70
2023-03-07T08:14:14.333Z,10.00
2023-03-07T08:16:42.918Z,10.10
2023-03-07T08:19:11.197Z,10.30
2023-03-07T08:21:40.116Z,9.60
2023-03-07T08:24:08.396Z,10.40
2023-03-07T08:26:37.200Z,9.80
2023-03-07T08:29:05.653Z,10.10
2023-03-07T08:31:34.464Z,10.50
2023-03-07T08:34:03.435Z,10.40
2023-03-07T08:36:32.440Z,10.60
2023-03-07T08:39:03.117Z,9.70
2023-03-07T08:41:32.542Z,10.60
2023-03-07T08:44:03.512Z,9.40
2023-03-07T08:49:25.937Z,10.40
2023-03-07T08:51:58.227Z,9.60
2023-03-07T08:54:30.121Z,7.60
2023-03-07T08:57:01.033Z,9.80
2023-03-07T08:59:29.732Z,9.60
2023-03-07T09:01:58.550Z,9.80
2023-03-07T09:04:33.519Z,8.50
2023-03-07T09:07:22.325Z,8.80
2023-03-07T09:09:56.760Z,8.60
2023-03-07T09:12:35.391Z,9.70
2023-03-07T09:15:06.001Z,9.30
2023-03-07T09:17:34.600Z,9.60
2023-03-07T09:20:04.618Z,8.90
2023-03-07T09:22:36.162Z,8.90
2023-03-07T09:25:06.567Z,9.20
2023-03-07T09:27:34.894Z,8.80
2023-03-07T09:30:04.194Z,9.10
2023-03-07T09:32:34.046Z,9.20
2023-03-07T09:35:04.207Z,9.60
2023-03-07T09:37:32.486Z,8.90
2023-03-07T09:40:01.535Z,8.70
2023-03-07T09:42:45.633Z,8.30
2023-03-07T09:45:17.624Z,9.00
2023-03-07T09:48:34.224Z,9.50
2023-03-07T09:51:11.695Z,9.20
2023-03-07T09:53:51.761Z,9.70
2023-03-07T09:56:24.901Z,9.40
2023-03-07T09:59:22.771Z,9.10
2023-03-07T10:02:11.806Z,9.70
2023-03-07T10:04:49.422Z,10.60
2023-03-07T10:07:17.775Z,10.20
2023-03-07T10:09:47.075Z,11.30
2023-03-07T10:12:22.113Z,10.40
2023-03-07T10:15:22.884Z,10.20
2023-03-07T10:18:23.119Z,10.30
2023-03-07T10:21:25.873Z,10.30
2023-03-07T10:24:07.025Z,10.30
2023-03-07T10:26:40.962Z,11.40
2023-03-07T10:29:18.246Z,11.20
2023-03-07T10:31:54.365Z,9.10
2023-03-07T10:34:27.336Z,10.00
2023-03-07T10:37:08.819Z,9.70
2023-03-07T10:39:54.483Z,10.40
2023-03-07T10:42:27.434Z,10.20
2023-03-07T10:44:56.975Z,10.20
2023-03-07T10:47:28.166Z,9.80
2023-03-07T10:50:20.353Z,10.60
2023-03-07T10:52:57.542Z,9.60
2023-03-07T10:55:36.099Z,10.30
2023-03-07T10:58:28.711Z,9.70
2023-03-07T11:01:15.554Z,9.90
2023-03-07T11:03:58.739Z,10.00
2023-03-07T11:06:33.890Z,10.00
2023-03-07T11:09:17.945Z,10.60
2023-03-07T11:11:51.140Z,11.30
2023-03-07T11:14:22.253Z,10.40
2023-03-07T11:16:55.892Z,10.60
2023-03-07T11:19:40.859Z,10.30
2023-03-07T11:22:26.541Z,10.20
2023-03-07T11:25:00.537Z,10.20
2023-03-07T11:27:35.059Z,10.30
2023-03-07T11:30:42.297Z,9.20
2023-03-07T11:33:27.853Z,10.00
2023-03-07T11:36:25.539Z,9.80
2023-03-07T11:39:04.044Z,9.70
2023-03-07T11:41:41.542Z,9.60
2023-03-07T11:44:17.600Z,8.80
2023-03-07T11:46:49.025Z,9.60
2023-03-07T11:49:40.887Z,8.50
2023-03-07T11:52:29.850Z,9.10
2023-03-07T11:55:17.174Z,9.20
2023-03-07T11:58:10.747Z,10.50
2023-03-07T12:00:52.851Z,8.90
2023-03-07T12:03:40.004Z,8.20
2023-03-07T12:06:40.000Z,9.40
2023-03-07T12:09:36.129Z,9.90
2023-03-07T12:12:12.294Z,9.50
2023-03-07T12:15:07.914Z,10.30
2023-03-07T12:18:06.606Z,8.50
2023-03-07T12:20:40.529Z,9.20
2023-03-07T12:23:21.083Z,9.90
2023-03-07T12:25:58.578Z,10.10
2023-03-07T12:28:46.870Z,10.20
2023-03-07T12:31:19.127Z,10.20
2023-03-07T12:33:53.654Z,9.40
2023-03-07T12:36:34.390Z,9.20
2023-03-07T12:39:10.849Z,9.50
2023-03-07T12:41:49.192Z,9.80
2023-03-07T12:44:51.766Z,9.70
2023-03-07T12:47:31.001Z,10.20
2023-03-07T12:50:30.102Z,9.90
2023-03-07T12:53:10.885Z,9.60
2023-03-07T12:55:45.708Z,9.80
2023-03-07T12:58:42.149Z,8.90
2023-03-07T13:01:23.259Z,8.90
2023-03-07T13:04:06.485Z,8.60
2023-03-07T13:06:40.108Z,9.80
2023-03-07T13:09:26.923Z,9.00
2023-03-07T13:12:17.044Z,9.20
2023-03-07T13:14:48.626Z,10.10
2023-03-07T13:17:31.036Z,10.60
2023-03-07T13:20:41.499Z,9.10
2023-03-07T13:23:30.356Z,9.80
2023-03-07T13:26:03.874Z,8.90
2023-03-07T13:28:39.841Z,8.30
2023-03-07T13:31:15.778Z,7.40
2023-03-07T13:33:50.003Z,8.90
2023-03-07T13:36:34.252Z,9.50
2023-03-07T13:39:48.401Z,9.40
2023-03-07T13:42:51.561Z,8.50
2023-03-07T13:45:40.494Z,9.30
2023-03-07T13:48:34.304Z,9.10
2023-03-07T13:51:13.191Z,10.10
2023-03-07T13:53:51.630Z,9.70
2023-03-07T13:56:41.644Z,9.70
2023-03-07T13:59:30.711Z,9.40
2023-03-07T14:02:19.521Z,8.60
2023-03-07T14:05:21.567Z,10.10
2023-03-07T14:08:21.370Z,9.60
2023-03-07T14:11:41.373Z,9.80
2023-03-07T14:14:39.595Z,9.40
2023-03-07T14:18:08.463Z,8.80
2023-03-07T14:21:18.393Z,9.00
2023-03-07T14:24:31.858Z,8.40
2023-03-07T14:27:18.712Z,9.70
2023-03-07T14:29:53.929Z,9.70
2023-03-07T14:32:44.847Z,9.70
2023-03-07T14:35:44.463Z,10.20
2023-03-07T14:38:29.224Z,9.20
2023-03-07T14:41:43.247Z,9.80
2023-03-07T14:44:55.672Z,9.80
2023-03-07T14:47:57.329Z,10.00
2023-03-07T15:04:51.491Z,10.90
2023-03-07T15:07:34.281Z,11.30
2023-03-07T15:10:35.500Z,10.70
2023-03-07T15:13:36.338Z,10.70
2023-03-07T15:16:29.920Z,11.50
2023-03-07T15:19:22.431Z,10.90
2023-03-07T15:22:02.982Z,11.80
2023-03-07T15:24:45.141Z,10.70
2023-03-07T15:27:16.040Z,11.30
2023-03-07T15:29:59.656Z,10.70
2023-03-07T15:32:50.923Z,11.40
2023-03-07T15:35:53.558Z,11.80
2023-03-07T15:44:49.808Z,13.60
2023-03-07T15:47:46.660Z,13.70
2023-03-07T15:50:49.913Z,12.60
2023-03-07T15:53:56.727Z,14.00
2023-03-07T16:00:11.578Z,16.30
2023-03-07T16:02:54.264Z,14.10
2023-03-07T16:05:59.785Z,14.80
2023-03-07T16:08:49.272Z,11.80
2023-03-07T16:11:38.114Z,10.70
2023-03-07T16:14:31.625Z,10.80
2023-03-07T16:17:35.624Z,11.00
2023-03-07T16:20:38.698Z,11.30
2023-03-07T16:23:39.675Z,11.30
2023-03-07T16:26:38.603Z,11.90
2023-03-07T16:29:30.060Z,11.20
2023-03-07T16:32:26.824Z,11.70
2023-03-07T16:35:27.145Z,11.50
2023-03-07T16:38:07.755Z,12.70
2023-03-07T16:40:57.657Z,14.00
2023-03-07T16:43:56.567Z,15.40
2023-03-07T16:46:57.839Z,14.30
2023-03-07T16:49:46.840Z,14.20
2023-03-07T16:52:42.681Z,13.60
2023-03-07T16:55:36.676Z,14.40
2023-03-07T16:58:38.359Z,14.60
2023-03-07T17:01:19.929Z,14.10
2023-03-07T17:03:51.120Z,13.80
2023-03-07T17:06:39.651Z,14.30
2023-03-07T17:09:30.132Z,15.30
2023-03-07T17:12:30.297Z,16.50
2023-03-07T17:15:01.545Z,14.50
2023-03-07T17:17:41.090Z,15.00
2023-03-07T17:20:37.795Z,15.20
2023-03-07T17:23:42.984Z,15.30
2023-03-07T17:26:35.854Z,14.30
2023-03-07T17:29:12.929Z,13.00
2023-03-07T17:31:49.761Z,14.80
2023-03-07T17:34:43.678Z,15.60
2023-03-07T17:37:12.810Z,16.00
2023-03-07T17:39:42.996Z,15.60
2023-03-07T17:42:14.255Z,14.40
2023-03-07T17:44:42.833Z,14.50
2023-03-07T17:47:12.036Z,14.40
2023-03-07T17:49:40.538Z,15.70
2023-03-07T17:52:09.208Z,21.40
2023-03-07T17:54:38.591Z,21.10
2023-03-07T17:57:11.311Z,19.70
2023-03-07T17:59:39.980Z,19.00
2023-03-07T18:02:13.293Z,21.30
2023-03-07T18:04:41.678Z,21.00
2023-03-07T18:07:10.187Z,21.60
2023-03-07T18:09:41.418Z,23.10
2023-03-07T18:12:10.931Z,20.20
2023-03-07T18:14:39.385Z,18.80
2023-03-07T18:17:07.660Z,17.40
2023-03-07T18:19:38.684Z,17.00
2023-03-07T18:22:07.102Z,16.40
2023-03-07T18:24:35.900Z,16.10
2023-03-07T18:27:08.756Z,17.30
2023-03-07T18:29:37.695Z,15.70
2023-03-07T18:32:06.639Z,16.30
2023-03-07T18:34:37.816Z,18.70
2023-03-07T18:37:08.527Z,19.40
2023-03-07T18:39:37.623Z,18.40
2023-03-07T18:42:06.003Z,17.70
2023-03-07T18:44:34.485Z,17.30
2023-03-07T18:49:35.343Z,19.30
2023-03-07T18:52:03.628Z,18.70
2023-03-07T18:54:34.502Z,18.30
2023-03-07T18:57:05.040Z,19.30
2023-03-07T18:59:33.682Z,20.60
2023-03-07T19:02:03.451Z,20.60
2023-03-07T19:04:32.288Z,21.10
2023-03-07T19:07:01.075Z,21.30
2023-03-07T19:09:31.494Z,21.20
2023-03-07T19:12:00.827Z,24.60
2023-03-07T19:14:30.123Z,24.60
2023-03-07T19:16:58.499Z,24.90
2023-03-07T19:19:37.846Z,26.10
2023-03-07T19:22:06.317Z,25.20
2023-03-07T19:24:34.629Z,22.30
2023-03-07T19:27:02.943Z,21.80
2023-03-07T19:29:31.566Z,22.30
2023-03-07T19:32:05.191Z,21.80
2023-03-07T19:34:35.702Z,21.80
2023-03-07T19:37:04.385Z,23.10
2023-03-07T19:39:33.482Z,25.80
2023-03-07T19:42:02.168Z,24.60
2023-03-07T19:44:35.259Z,22.80
2023-03-07T19:47:03.711Z,23.50
2023-03-07T19:49:32.219Z,26.00
2023-03-07T19:52:01.175Z,25.50
2023-03-07T19:54:31.807Z,23.40
2023-03-07T19:57:00.233Z,24.80
2023-03-07T19:59:28.827Z,24.40
2023-03-07T20:01:57.515Z,24.00
2023-03-07T20:04:26.316Z,24.50
2023-03-07T20:06:54.883Z,25.50
2023-03-07T20:09:23.630Z,24.10
2023-03-07T20:12:02.258Z,24.50
2023-03-07T20:14:31.118Z,23.30
2023-03-07T20:17:00.101Z,24.50
2023-03-07T20:19:28.464Z,24.20
2023-03-07T20:22:00.230Z,24.40
2023-03-07T20:24:30.489Z,23.90
2023-03-07T20:26:59.627Z,23.40
2023-03-07T20:29:28.343Z,23.30
2023-03-07T20:31:56.719Z,23.90
2023-03-07T20:34:25.542Z,23.40
2023-03-07T20:36:55.337Z,25.00
2023-03-07T20:39:24.218Z,23.60
2023-03-07T20:41:54.457Z,23.10
2023-03-07T20:44:23.151Z,23.40
2023-03-07T20:46:51.618Z,23.90
2023-03-07T20:49:20.103Z,23.40
2023-03-07T20:51:49.096Z,24.10
2023-03-07T20:54:18.332Z,23.70
2023-03-07T20:56:47.319Z,24.60
2023-03-07T20:59:18.789Z,27.20
2023-03-07T21:01:47.275Z,26.20
2023-03-07T21:04:17.979Z,25.50
2023-03-07T21:06:47.608Z,24.50
2023-03-07T21:09:17.153Z,25.10
2023-03-07T21:11:47.757Z,24.20
2023-03-07T21:14:18.159Z,24.30
2023-03-07T21:16:46.529Z,24.60
2023-03-07T21:19:15.324Z,23.40
2023-03-07T21:21:43.823Z,23.70
2023-03-07T21:24:13.297Z,23.80
2023-03-07T21:26:43.753Z,24.00
2023-03-07T21:29:14.189Z,23.80
2023-03-07T21:31:44.036Z,23.60
2023-03-07T21:34:14.949Z,22.00
2023-03-07T21:36:43.232Z,24.00
2023-03-07T21:39:14.252Z,23.20
2023-03-07T21:41:42.737Z,24.20
2023-03-07T21:44:12.545Z,23.50
2023-03-07T21:46:42.253Z,23.20
2023-03-07T21:49:10.740Z,23.00
2023-03-07T21:51:39.324Z,22.80
2023-03-07T21:54:07.832Z,23.20
2023-03-07T21:56:36.429Z,23.50
2023-03-07T21:59:05.036Z,23.30
2023-03-07T22:01:39.509Z,23.80
2023-03-07T22:04:08.099Z,22.90
2023-03-07T22:06:36.670Z,22.90
2023-03-07T22:09:05.962Z,22.40
2023-03-07T22:11:34.214Z,23.90
2023-03-07T22:14:04.167Z,22.80
2023-03-07T22:16:36.187Z,23.10
2023-03-07T22:19:04.843Z,20.80
2023-03-07T22:21:33.918Z,23.60
2023-03-07T22:24:06.094Z,22.30
2023-03-07T22:26:34.557Z,21.90
2023-03-07T22:29:03.679Z,22.30
2023-03-07T22:31:33.858Z,22.30
2023-03-07T22:34:02.886Z,22.50
2023-03-07T22:36:31.277Z,22.60
2023-03-07T22:38:59.449Z,21.10
2023-03-07T22:41:27.976Z,21.40
2023-03-07T22:43:57.339Z,21.80
2023-03-07T22:46:25.696Z,22.20
2023-03-07T22:48:55.437Z,22.10
2023-03-07T22:51:26.003Z,20.90
2023-03-07T22:53:56.442Z,21.00
2023-03-07T22:59:15.951Z,21.70
2023-03-07T23:01:55.346Z,16.30
2023-03-07T23:04:47.767Z,21.70
2023-03-07T23:07:24.320Z,21.20
2023-03-07T23:09:57.956Z,22.10
2023-03-07T23:12:44.192Z,21.80
2023-03-07T23:15:15.878Z,21.00
2023-03-07T23:17:51.639Z,21.40
2023-03-07T23:26:47.850Z,20.20
2023-03-07T23:29:16.589Z,20.60
2023-03-07T23:31:45.320Z,20.00
2023-03-07T23:34:20.747Z,21.10
2023-03-07T23:36:50.172Z,20.70
2023-03-07T23:39:19.372Z,19.30
2023-03-07T23:41:47.648Z,20.50
2023-03-07T23:44:16.467Z,19.80
2023-03-07T23:46:45.329Z,19.10
2023-03-07T23:49:15.568Z,21.40
2023-03-07T23:51:45.068Z,20.00
2023-03-07T23:54:14.366Z,20.30
2023-03-07T23:56:42.855Z,20.40
2023-03-07T23:59:11.210Z,20.80
